• Join FlightAware (Why Join?)
  • Login
  • US Flag 
08:19AM EDT


 

Airport Tracker/Info


-or-


 

Live Flight TrackerFlight Track Log ✈ JST526 ✈ 21-Apr-2013 ✈ YMML / MEL - YSSY / SYD

Flight Track Log - Related Links

Times and Time Zones

All times are in EDT time to prevent confusion due to time zone crossing. See the JST526 flight status page for this flight to view local times or setup timezone preferences in your user account.

Time Position Orientation Groundspeed Altitude Reporting Facility
EDT Latitude Longitude Course Direction KTS MPH feet Rate Location/Type
06:39AM -37.6600 144.8100 274° West 139 160 1,800  Level FlightAware
06:39AM -37.6585 144.7897 226° Southwest 140 161 2,200 1,440 Climbing Aus ATC (RADAR)
06:39AM -37.6590 144.7890 273° West 163 188 2,400 1,380 Climbing FlightAware
06:40AM -37.6570 144.7730 279° West 183 211 2,700 1,320 Climbing FlightAware
06:40AM -37.6550 144.7380 274° West 233 268 3,400 1,680 Climbing FlightAware
06:40AM -37.6530 144.7150 276° West 248 285 4,000 2,760 Climbing FlightAware
06:41AM -37.6460 144.6970 296° West 248 285 4,800 3,360 Climbing FlightAware
06:41AM -37.6350 144.6880 327° Northwest 245 282 5,400 3,720 Climbing FlightAware
06:41AM -37.6030 144.6740 341° North 247 284 7,300 3,720 Climbing FlightAware
06:42AM -37.5880 144.6680 342° North 247 284 8,200 3,420 Climbing FlightAware
06:42AM -37.5600 144.6560 341° North 255 293 9,600 3,240 Climbing FlightAware
06:42AM -37.5480 144.6540 352° North 256 295 10,100 3,000 Climbing FlightAware
06:42AM -37.5260 144.6650 22° Northeast 265 305 11,100 2,700 Climbing FlightAware
06:43AM -37.5140 144.6840 51° Northeast 277 319 11,700 2,760 Climbing FlightAware
06:43AM -37.4917 144.7316 51° Northeast 282 325 13,100 2,700 Climbing Aus ATC (RADAR)
06:43AM -37.4880 144.7410 51° Northeast 288 331 13,500 2,400 Climbing FlightAware
06:44AM -37.4672 144.7824 51° Northeast 293 337 14,500 2,400 Climbing Aus ATC (RADAR)
06:44AM -37.4560 144.8060 51° Northeast 302 348 15,300 2,460 Climbing FlightAware
06:45AM -37.4230 144.8726 51° Northeast 307 353 17,000 2,520 Climbing Aus ATC (RADAR)
06:45AM -37.4260 144.8670 51° Northeast 308 354 17,000 1,800 Level FlightAware
06:45AM -37.4001 144.9193 51° Northeast 315 362 17,900 2,100 Climbing Aus ATC (RADAR)
06:45AM -37.3950 144.9300 51° Northeast 326 375 18,400 2,160 Climbing FlightAware
06:46AM -37.3590 145.0040 59° Northeast 335 386 20,000 1,740 Climbing FlightAware
06:47AM -37.3268 145.0683 59° Northeast 346 398 20,700 1,320 Climbing Aus ATC (RADAR)
06:47AM -37.3250 145.0720 59° Northeast 360 414 20,900 780 Climbing FlightAware
06:48AM -37.2840 145.1550 58° Northeast 395 455 21,400 720 Climbing FlightAware
06:48AM -37.2440 145.2350 58° Northeast 416 479 22,000 1,260 Climbing FlightAware
06:49AM -37.2030 145.3180 58° Northeast 421 484 23,100 1,500 Climbing FlightAware
06:49AM -37.1737 145.3768 58° Northeast 422 486 23,600 1,320 Climbing Aus ATC (RADAR)
06:50AM -37.1570 145.4090 58° Northeast 431 496 24,100 1,440 Climbing FlightAware
06:50AM -37.1090 145.4920 54° Northeast 436 502 25,100 1,320 Climbing FlightAware
06:51AM -37.0747 145.5509 54° Northeast 438 504 25,500 1,080 Climbing Aus ATC (RADAR)
06:51AM -37.0570 145.5819 54° Northeast 439 505 25,800 1,620 Climbing Aus ATC (RADAR)
06:51AM -37.0540 145.5870 54° Northeast 442 509 26,100 1,500 Climbing FlightAware
06:52AM -37.0151 145.6547 54° Northeast 443 510 26,700 1,320 Climbing Aus ATC (RADAR)
06:52AM -37.0080 145.6690 54° Northeast 447 514 27,000 1,260 Climbing FlightAware
06:52AM -36.9580 145.7540 54° Northeast 452 520 27,800 1,020 Climbing FlightAware
06:53AM -36.9110 145.8339 54° Northeast 452 520 28,300 900 Climbing Aus ATC (RADAR)
06:53AM -36.9030 145.8500 54° Northeast 459 528 28,500 900 Climbing FlightAware
06:54AM -36.8530 145.9350 54° Northeast 466 536 29,100 900 Climbing FlightAware
06:54AM -36.8232 145.9856 54° Northeast 464 534 29,400 1,200 Climbing Aus ATC (RADAR)
06:55AM -36.8030 146.0220 54° Northeast 465 535 29,900 1,380 Climbing FlightAware
06:55AM -36.7450 146.1200 54° Northeast 461 531 31,000 1,200 Climbing FlightAware
06:56AM -36.7157 146.1683 54° Northeast 461 531 31,200 1,020 Climbing Aus ATC (RADAR)
06:56AM -36.6940 146.2070 54° Northeast 463 533 31,700 1,380 Climbing FlightAware
06:57AM -36.6380 146.3030 54° Northeast 459 528 32,800 1,440 Climbing FlightAware
06:57AM -36.6093 146.3506 54° Northeast 458 527 33,200 1,080 Climbing Aus ATC (RADAR)
06:57AM -36.5905 146.3826 54° Northeast 457 526 33,400 1,020 Climbing Aus ATC (RADAR)
06:57AM -36.5880 146.3890 54° Northeast 460 529 33,600 1,320 Climbing FlightAware
06:58AM -36.5463 146.4564 54° Northeast 456 525 34,200 1,020 Climbing Aus ATC (RADAR)
06:58AM -36.5320 146.4820 54° Northeast 460 529 34,400 1,080 Climbing FlightAware
06:59AM -36.4835 146.5629 54° Northeast 458 527 35,100 1,200 Climbing Aus ATC (RADAR)
06:59AM -36.4810 146.5700 54° Northeast 459 528 35,200 1,200 Climbing FlightAware
06:59AM -36.4399 146.6365 54° Northeast 454 522 35,800 1,200 Climbing Aus ATC (RADAR)
06:59AM -36.4310 146.6540 54° Northeast 456 525 36,000 720 Climbing FlightAware
07:00AM -36.3750 146.7470 53° Northeast 461 531 36,500 660 Climbing FlightAware
07:00AM -36.3454 146.7953 53° Northeast 458 527 36,700 600 Climbing Aus ATC (RADAR)
07:01AM -36.3240 146.8350 53° Northeast 464 534 36,900 600 Climbing FlightAware
07:02AM -36.2660 146.9310 53° Northeast 469 540 37,400 480 Climbing FlightAware
07:02AM -36.2297 146.9880 53° Northeast 467 537 37,500 300 Climbing Aus ATC (RADAR)
07:02AM -36.2140 147.0170 53° Northeast 474 545 37,600 360 Climbing FlightAware
07:03AM -36.1707 147.0859 53° Northeast 472 543 37,800 600 Climbing Aus ATC (RADAR)
07:03AM -36.1610 147.1050 53° Northeast 477 549 38,000 420 Climbing FlightAware
07:03AM -36.1179 147.1733 53° Northeast 475 547 38,100 360 Climbing Aus ATC (RADAR)
07:04AM -36.1020 147.2030 53° Northeast 481 554 38,300 660 Climbing FlightAware
07:04AM -36.0715 147.2501 53° Northeast 476 548 38,500 600 Climbing Aus ATC (RADAR)
07:04AM -36.0500 147.2890 53° Northeast 481 554 38,700 420 Climbing FlightAware
07:05AM -35.9890 147.3900 53° Northeast 479 551 39,000 180 Climbing FlightAware
07:06AM -35.9360 147.4770 53° Northeast 480 552 39,000  Level FlightAware
07:06AM -35.8810 147.5670 53° Northeast 482 555 39,000  Level FlightAware
07:07AM -35.8452 147.6228 53° Northeast 478 550 39,000  Level Aus ATC (RADAR)
07:07AM -35.8210 147.6660 53° Northeast 482 555 39,000  Level FlightAware
07:08AM -35.7700 147.7500 53° Northeast 482 555 39,000  Level FlightAware
07:08AM -35.7313 147.8089 53° Northeast 477 549 39,000  Level Aus ATC (RADAR)
07:08AM -35.7115 147.8422 54° Northeast 478 550 39,000  Level Aus ATC (RADAR)
07:09AM -35.7110 147.8470 54° Northeast 485 558 39,000  Level FlightAware
07:09AM -35.6684 147.9241 54° Northeast 484 557 39,000  Level Aus ATC (RADAR)
07:09AM -35.6590 147.9460 54° Northeast 491 565 39,000  Level FlightAware
07:10AM -35.6070 148.0440 57° Northeast 496 571 39,000 -360 Level FlightAware
07:11AM -35.5569 148.1363 57° Northeast 486 559 38,600 -420 Descending Aus ATC (RADAR)
07:11AM -35.5510 148.1480 57° Northeast 489 563 38,700 -300 Climbing FlightAware
07:11AM -35.5020 148.2380 56° Northeast 482 555 38,400 -600 Descending FlightAware
07:12AM -35.4512 148.3313 56° Northeast 482 555 38,000 -480 Descending Aus ATC (RADAR)
07:12AM -35.4510 148.3320 56° Northeast 484 557 38,100 -420 Climbing FlightAware
07:13AM -35.3955 148.4352 56° Northeast 481 554 37,700 -540 Descending Aus ATC (RADAR)
07:13AM -35.3960 148.4340 56° Northeast 483 556 37,700 -420 Level FlightAware
07:13AM -35.3450 148.5280 56° Northeast 489 563 37,400 -600 Descending FlightAware
07:13AM -35.3393 148.5383 56° Northeast 482 555 37,300 -540 Descending Aus ATC (RADAR)
07:14AM -35.2952 148.6186 56° Northeast 481 554 37,100 -360 Descending Aus ATC (RADAR)
07:14AM -35.2960 148.6180 56° Northeast 488 562 37,100 -540 Level FlightAware
07:15AM -35.2370 148.7250 56° Northeast 487 560 36,700 -540 Descending FlightAware
07:15AM -35.2139 148.7672 56° Northeast 480 552 36,600 -600 Descending Aus ATC (RADAR)
07:15AM -35.1951 148.8013 56° Northeast 479 551 36,400 -480 Descending Aus ATC (RADAR)
07:16AM -35.1870 148.8180 56° Northeast 483 556 36,400 -360 Level FlightAware
07:16AM -35.1522 148.8801 56° Northeast 473 544 36,200 -420 Descending Aus ATC (RADAR)
07:16AM -35.1330 148.9160 56° Northeast 477 549 36,100 -300 Descending FlightAware
07:17AM -35.0967 148.9805 56° Northeast 470 541 36,000 -180 Descending Aus ATC (RADAR)
07:17AM -35.0820 149.0070 56° Northeast 476 548 36,000  Level FlightAware
07:17AM -35.0536 149.0581 56° Northeast 470 541 36,000  Level Aus ATC (RADAR)
07:18AM -35.0310 149.0990 56° Northeast 478 550 36,000  Level FlightAware
07:18AM -34.9794 149.1923 56° Northeast 473 544 36,000  Level Aus ATC (RADAR)
07:18AM -34.9770 149.1980 56° Northeast 480 552 36,000  Level FlightAware
07:19AM -34.9250 149.2900 55° Northeast 481 554 36,000  Level FlightAware
07:20AM -34.8700 149.3890 56° Northeast 482 555 36,000  Level FlightAware
07:20AM -34.8292 149.4614 56° Northeast 474 545 36,000 120 Level Aus ATC (RADAR)
07:20AM -34.8190 149.4800 56° Northeast 480 552 36,100  Climbing FlightAware
07:21AM -34.7670 149.5727 56° Northeast 471 542 36,000 -180 Descending Aus ATC (RADAR)
07:21AM -34.7630 149.5800 56° Northeast 478 550 36,000  Level FlightAware
07:22AM -34.7171 149.6613 56° Northeast 472 543 36,000  Level Aus ATC (RADAR)
07:22AM -34.7140 149.6670 56° Northeast 480 552 36,000 -1,080 Level FlightAware
07:22AM -34.6733 149.7389 56° Northeast 470 541 35,400 -1,500 Descending Aus ATC (RADAR)
07:23AM -34.6640 149.7560 56° Northeast 480 552 35,000 -2,640 Descending FlightAware
07:23AM -34.6070 149.8570 56° Northeast 485 558 33,000 -3,000 Descending FlightAware
07:24AM -34.5726 149.9176 56° Northeast 472 543 31,500 -3,300 Descending Aus ATC (RADAR)
07:24AM -34.5560 149.9480 56° Northeast 490 564 30,800 -3,420 Descending FlightAware
07:24AM -34.5340 149.9853 56° Northeast 476 548 29,800 -4,020 Descending Aus ATC (RADAR)
07:25AM -34.4970 150.0510 56° Northeast 501 577 27,800 -4,140 Descending FlightAware
07:25AM -34.4552 150.1232 56° Northeast 484 557 25,700 -4,080 Descending Aus ATC (RADAR)
07:25AM -34.4470 150.1390 56° Northeast 504 580 25,100 -3,240 Descending FlightAware
07:26AM -34.3898 150.2379 56° Northeast 481 554 23,000 -3,000 Descending Aus ATC (RADAR)
07:26AM -34.3920 150.2340 56° Northeast 488 562 23,100 -2,820 Climbing FlightAware
07:27AM -34.3350 150.3340 55° Northeast 472 543 20,900 -2,880 Descending FlightAware
07:27AM -34.2880 150.4210 57° Northeast 454 522 19,100 -3,180 Descending FlightAware
07:28AM -34.2640 150.5530 78° East 417 480 15,600 -4,080 Descending FlightAware
07:29AM -34.2572 150.6078 78° East 390 449 13,800 -4,380 Descending Aus ATC (RADAR)
07:29AM -34.2520 150.6450 78° East 400 460 12,700 -3,840 Descending FlightAware
07:30AM -34.2410 150.7300 81° East 390 449 9,900 -4,080 Descending FlightAware
07:30AM -34.2380 150.7490 79° East 384 442 9,300 -4,380 Descending FlightAware
07:30AM -34.2308 150.8012 79° East 359 413 7,800 -4,020 Descending Aus ATC (RADAR)
07:30AM -34.2290 150.8130 79° East 370 426 7,300 -2,400 Descending FlightAware
07:31AM -34.2210 150.8730 81° East 358 412 6,200 -1,560 Descending FlightAware
07:31AM -34.2160 150.9120 81° East 365 420 6,000 -600 Descending FlightAware
07:32AM -34.2080 150.9710 81° East 304 350 5,700 -660 Descending FlightAware
07:32AM -34.2010 151.0200 80° East 281 323 5,300 -1,020 Descending FlightAware
07:33AM -34.1950 151.0650 81° East 277 319 4,700 -1,440 Descending FlightAware
07:33AM -34.1900 151.1040 81° East 271 312 4,000 -1,500 Descending FlightAware
07:34AM -34.1850 151.1399 81° East 260 299 3,600 -840 Descending Aus ATC (RADAR)
07:34AM -34.1830 151.1480 81° East 256 295 3,600 -480 Level FlightAware
07:34AM -34.1750 151.1670 63° Northeast 240 276 3,400 -660 Descending FlightAware
07:34AM -34.1566 151.1972 63° Northeast 229 264 3,200 -480 Descending Aus ATC (RADAR)
07:34AM -34.1590 151.1940 63° Northeast 222 255 3,200 -420 Level FlightAware
07:35AM -34.1470 151.2040 35° Northeast 215 247 3,100 -540 Descending FlightAware
07:35AM -34.1190 151.2130 15° North 188 216 2,800 -540 Descending FlightAware
07:35AM -34.1060 151.2150 North 181 208 2,700 -600 Descending FlightAware
07:36AM -34.0840 151.2120 354° North 177 204 2,400 -780 Descending FlightAware
07:36AM -34.0730 151.2090 347° North 162 186 2,200 -900 Descending FlightAware
07:37AM -34.0540 151.2040 348° North 152 175 1,800 -780 Descending FlightAware
07:37AM -34.0340 151.1990 348° North 133 153 1,500 -720 Descending FlightAware
07:38AM -34.0170 151.1940 346° North 119 137 1,100 -780 Descending FlightAware
07:38AM -34.0020 151.1900 348° North 130 150 800 -660 Descending FlightAware
07:38AM -33.9840 151.1860 350° North 130 150 500 -660 Descending FlightAware
07:39AM -33.9700 151.1820 347° North 132 152 200 -720 Descending FlightAware
07:39AM -33.9550 151.1780 348° North 115 132 -480 Descending FlightAware
07:40AM -33.9450 151.1760 351° North 66 76  Level FlightAware
07:40AM -33.9380 151.1740 347° North 24 28  Level FlightAware
07:41AM -33.9370 151.1750 40° Northeast 8 9  Level FlightAware
07:41AM -33.9360 151.1760 40° Northeast 5 6  Level FlightAware
07:42AM -33.9360 151.1770 90° East 5 6  Level FlightAware
07:45AM -33.9460 151.1771 225° Southwest  Level FlightAware Approximate
07:46AM -33.9461 151.1772 225° Southwest  Level Estimated
07:47AM -33.9461 151.1772 225° Southwest  Level Estimated
07:48AM -33.9461 151.1772 225° Southwest  Level Estimated
07:49AM -33.9461 151.1772 225° Southwest  Level Estimated
07:50AM -33.9461 151.1772 225° Southwest  Level Estimated